Terminal Aerodrome Forecast
Issued by NWS Binghamton, NY

Home | Current Version | Previous Version | Text Only | Print | Product List | Glossary On
Versions: 1 2 3 4 5 6 7 8 9 10 11 12 13 14 15 16 17 18 19 20 21 22 23 24 25 26 27
000
FTUS41 KBGM 240910 AAA
TAFBGM
TAF AMD
KBGM 240910Z 2409/2506 32005KT 1/2SM FG VV002
     FM241200 32005KT P6SM OVC008
     FM241500 32007KT P6SM OVC015
     FM241800 34007KT P6SM BKN035
     FM250000 12005KT P6SM OVC035=

USA.gov is the U.S. government's official web portal to all federal, state and local government web resources and services.